sensor_id;sensor_type;location;lat;lon;timestamp;temperature;humidity
21108;DHT22;10712;52.944;9.098;2023-03-14T00:00:11;10.80;87.30
21108;DHT22;10712;52.944;9.098;2023-03-14T00:02:39;10.80;87.20
21108;DHT22;10712;52.944;9.098;2023-03-14T00:05:06;10.80;87.10
21108;DHT22;10712;52.944;9.098;2023-03-14T00:07:36;10.80;87.00
21108;DHT22;10712;52.944;9.098;2023-03-14T00:10:06;10.80;87.00
21108;DHT22;10712;52.944;9.098;2023-03-14T00:12:38;10.80;87.00
21108;DHT22;10712;52.944;9.098;2023-03-14T00:15:04;10.80;87.00
21108;DHT22;10712;52.944;9.098;2023-03-14T00:17:34;10.90;87.00
21108;DHT22;10712;52.944;9.098;2023-03-14T00:20:02;10.90;86.90
21108;DHT22;10712;52.944;9.098;2023-03-14T00:22:35;10.90;86.80
21108;DHT22;10712;52.944;9.098;2023-03-14T00:25:02;11.00;86.70
21108;DHT22;10712;52.944;9.098;2023-03-14T00:27:29;11.00;86.70
21108;DHT22;10712;52.944;9.098;2023-03-14T00:29:55;11.10;86.80
21108;DHT22;10712;52.944;9.098;2023-03-14T00:32:21;11.10;86.70
21108;DHT22;10712;52.944;9.098;2023-03-14T00:34:47;11.10;86.60
21108;DHT22;10712;52.944;9.098;2023-03-14T00:37:13;11.10;86.30
21108;DHT22;10712;52.944;9.098;2023-03-14T00:39:39;11.10;86.30
21108;DHT22;10712;52.944;9.098;2023-03-14T00:42:05;11.00;86.30
21108;DHT22;10712;52.944;9.098;2023-03-14T00:44:30;10.90;86.30
21108;DHT22;10712;52.944;9.098;2023-03-14T00:46:57;10.80;86.30
21108;DHT22;10712;52.944;9.098;2023-03-14T00:49:24;10.80;86.40
21108;DHT22;10712;52.944;9.098;2023-03-14T00:51:51;10.70;86.30
21108;DHT22;10712;52.944;9.098;2023-03-14T00:54:20;10.70;86.20
21108;DHT22;10712;52.944;9.098;2023-03-14T00:56:46;10.60;86.30
21108;DHT22;10712;52.944;9.098;2023-03-14T00:59:12;10.60;86.40
21108;DHT22;10712;52.944;9.098;2023-03-14T01:01:39;10.60;86.80
21108;DHT22;10712;52.944;9.098;2023-03-14T01:04:05;10.60;87.50
21108;DHT22;10712;52.944;9.098;2023-03-14T01:06:31;10.60;87.90
21108;DHT22;10712;52.944;9.098;2023-03-14T01:08:58;10.60;88.10
21108;DHT22;10712;52.944;9.098;2023-03-14T01:11:28;10.70;88.30
21108;DHT22;10712;52.944;9.098;2023-03-14T01:13:57;10.60;88.50
21108;DHT22;10712;52.944;9.098;2023-03-14T01:16:26;10.70;88.90
21108;DHT22;10712;52.944;9.098;2023-03-14T01:18:53;10.70;89.20
21108;DHT22;10712;52.944;9.098;2023-03-14T01:21:23;10.60;89.20
21108;DHT22;10712;52.944;9.098;2023-03-14T01:23:53;10.60;89.40
21108;DHT22;10712;52.944;9.098;2023-03-14T01:26:22;10.60;89.40
21108;DHT22;10712;52.944;9.098;2023-03-14T01:28:51;10.60;89.60
21108;DHT22;10712;52.944;9.098;2023-03-14T01:31:19;10.50;89.60
21108;DHT22;10712;52.944;9.098;2023-03-14T01:33:45;10.40;89.60
21108;DHT22;10712;52.944;9.098;2023-03-14T01:36:12;10.40;89.60
21108;DHT22;10712;52.944;9.098;2023-03-14T01:38:39;10.30;89.70
21108;DHT22;10712;52.944;9.098;2023-03-14T01:41:14;10.30;89.80
21108;DHT22;10712;52.944;9.098;2023-03-14T01:43:43;10.20;89.90
21108;DHT22;10712;52.944;9.098;2023-03-14T01:46:26;10.20;90.10
21108;DHT22;10712;52.944;9.098;2023-03-14T01:49:21;10.20;90.20
21108;DHT22;10712;52.944;9.098;2023-03-14T01:52:28;10.20;90.20
21108;DHT22;10712;52.944;9.098;2023-03-14T01:55:03;10.20;90.30
21108;DHT22;10712;52.944;9.098;2023-03-14T01:57:47;10.20;90.10
21108;DHT22;10712;52.944;9.098;2023-03-14T02:00:26;10.20;90.20
21108;DHT22;10712;52.944;9.098;2023-03-14T02:02:55;10.30;90.20
21108;DHT22;10712;52.944;9.098;2023-03-14T02:05:28;10.30;90.20
21108;DHT22;10712;52.944;9.098;2023-03-14T02:08:02;10.30;90.20
21108;DHT22;10712;52.944;9.098;2023-03-14T02:10:43;10.30;90.10
21108;DHT22;10712;52.944;9.098;2023-03-14T02:13:11;10.40;89.70
21108;DHT22;10712;52.944;9.098;2023-03-14T02:15:59;10.40;89.50
21108;DHT22;10712;52.944;9.098;2023-03-14T02:18:40;10.50;89.10
21108;DHT22;10712;52.944;9.098;2023-03-14T02:27:20;10.60;87.60
21108;DHT22;10712;52.944;9.098;2023-03-14T02:32:25;10.70;87.00
21108;DHT22;10712;52.944;9.098;2023-03-14T02:34:57;10.70;86.80
21108;DHT22;10712;52.944;9.098;2023-03-14T02:37:52;10.80;86.40
21108;DHT22;10712;52.944;9.098;2023-03-14T02:40:33;10.90;85.90
21108;DHT22;10712;52.944;9.098;2023-03-14T02:42:58;10.90;85.50
21108;DHT22;10712;52.944;9.098;2023-03-14T02:45:28;11.00;85.20
21108;DHT22;10712;52.944;9.098;2023-03-14T02:48:04;11.00;85.00
21108;DHT22;10712;52.944;9.098;2023-03-14T02:50:37;11.00;84.90
21108;DHT22;10712;52.944;9.098;2023-03-14T02:53:04;11.00;84.70
21108;DHT22;10712;52.944;9.098;2023-03-14T02:55:31;11.00;84.70
21108;DHT22;10712;52.944;9.098;2023-03-14T02:58:02;11.00;84.70
21108;DHT22;10712;52.944;9.098;2023-03-14T03:00:28;11.00;84.80
21108;DHT22;10712;52.944;9.098;2023-03-14T03:02:56;11.00;84.90
21108;DHT22;10712;52.944;9.098;2023-03-14T03:05:21;11.00;84.80
21108;DHT22;10712;52.944;9.098;2023-03-14T03:07:47;11.00;84.80
21108;DHT22;10712;52.944;9.098;2023-03-14T03:10:13;11.00;84.80
21108;DHT22;10712;52.944;9.098;2023-03-14T03:12:39;11.00;84.60
21108;DHT22;10712;52.944;9.098;2023-03-14T03:15:06;11.00;84.40
21108;DHT22;10712;52.944;9.098;2023-03-14T03:17:35;10.90;84.40
21108;DHT22;10712;52.944;9.098;2023-03-14T03:20:00;10.90;84.40
21108;DHT22;10712;52.944;9.098;2023-03-14T03:22:26;11.00;84.20
21108;DHT22;10712;52.944;9.098;2023-03-14T03:24:52;10.90;84.20
21108;DHT22;10712;52.944;9.098;2023-03-14T03:27:18;10.90;84.20
21108;DHT22;10712;52.944;9.098;2023-03-14T03:29:44;10.90;84.30
21108;DHT22;10712;52.944;9.098;2023-03-14T03:32:10;10.90;84.30
21108;DHT22;10712;52.944;9.098;2023-03-14T03:34:35;10.90;84.30
21108;DHT22;10712;52.944;9.098;2023-03-14T03:37:01;10.90;84.20
21108;DHT22;10712;52.944;9.098;2023-03-14T03:39:30;10.90;84.00
21108;DHT22;10712;52.944;9.098;2023-03-14T03:41:56;10.90;84.00
21108;DHT22;10712;52.944;9.098;2023-03-14T03:44:22;10.90;83.90
21108;DHT22;10712;52.944;9.098;2023-03-14T03:46:48;10.90;84.00
21108;DHT22;10712;52.944;9.098;2023-03-14T03:49:14;11.00;84.50
21108;DHT22;10712;52.944;9.098;2023-03-14T03:51:40;11.00;84.80
21108;DHT22;10712;52.944;9.098;2023-03-14T03:54:06;11.00;85.20
21108;DHT22;10712;52.944;9.098;2023-03-14T03:56:32;10.90;85.40
21108;DHT22;10712;52.944;9.098;2023-03-14T03:58:59;10.90;85.60
21108;DHT22;10712;52.944;9.098;2023-03-14T04:01:25;10.80;86.20
21108;DHT22;10712;52.944;9.098;2023-03-14T04:03:54;10.80;86.50
21108;DHT22;10712;52.944;9.098;2023-03-14T04:06:19;10.70;87.00
21108;DHT22;10712;52.944;9.098;2023-03-14T04:08:48;10.70;87.30
21108;DHT22;10712;52.944;9.098;2023-03-14T04:11:26;10.60;87.70
21108;DHT22;10712;52.944;9.098;2023-03-14T04:14:24;10.60;87.80
21108;DHT22;10712;52.944;9.098;2023-03-14T04:17:01;10.50;88.20
21108;DHT22;10712;52.944;9.098;2023-03-14T04:19:27;10.50;88.20
21108;DHT22;10712;52.944;9.098;2023-03-14T04:21:55;10.50;88.20
21108;DHT22;10712;52.944;9.098;2023-03-14T04:24:24;10.50;88.30
21108;DHT22;10712;52.944;9.098;2023-03-14T04:26:50;10.50;88.00
21108;DHT22;10712;52.944;9.098;2023-03-14T04:29:16;10.40;88.10
21108;DHT22;10712;52.944;9.098;2023-03-14T04:31:44;10.40;88.00
21108;DHT22;10712;52.944;9.098;2023-03-14T04:34:10;10.40;88.00
21108;DHT22;10712;52.944;9.098;2023-03-14T04:36:41;10.40;87.80
21108;DHT22;10712;52.944;9.098;2023-03-14T04:39:13;10.40;87.60
21108;DHT22;10712;52.944;9.098;2023-03-14T04:41:45;10.40;87.50
21108;DHT22;10712;52.944;9.098;2023-03-14T04:44:11;10.40;87.30
21108;DHT22;10712;52.944;9.098;2023-03-14T04:46:37;10.40;87.30
21108;DHT22;10712;52.944;9.098;2023-03-14T04:49:05;10.40;87.00
21108;DHT22;10712;52.944;9.098;2023-03-14T04:51:31;10.40;86.90
21108;DHT22;10712;52.944;9.098;2023-03-14T04:53:57;10.40;86.90
21108;DHT22;10712;52.944;9.098;2023-03-14T04:56:23;10.40;86.80
21108;DHT22;10712;52.944;9.098;2023-03-14T04:58:49;10.40;86.70
21108;DHT22;10712;52.944;9.098;2023-03-14T05:01:17;10.40;86.60
21108;DHT22;10712;52.944;9.098;2023-03-14T05:04:01;10.30;86.60
21108;DHT22;10712;52.944;9.098;2023-03-14T05:06:45;10.30;86.50
21108;DHT22;10712;52.944;9.098;2023-03-14T05:09:25;10.30;86.50
21108;DHT22;10712;52.944;9.098;2023-03-14T05:12:13;10.20;86.40
21108;DHT22;10712;52.944;9.098;2023-03-14T05:15:06;10.20;86.50
21108;DHT22;10712;52.944;9.098;2023-03-14T05:17:50;10.20;86.50
21108;DHT22;10712;52.944;9.098;2023-03-14T05:20:39;10.20;86.60
21108;DHT22;10712;52.944;9.098;2023-03-14T05:23:23;10.20;86.60
21108;DHT22;10712;52.944;9.098;2023-03-14T05:25:49;10.10;86.70
21108;DHT22;10712;52.944;9.098;2023-03-14T05:28:44;10.10;86.70
21108;DHT22;10712;52.944;9.098;2023-03-14T05:31:22;10.10;86.80
21108;DHT22;10712;52.944;9.098;2023-03-14T05:33:56;10.10;86.90
21108;DHT22;10712;52.944;9.098;2023-03-14T05:36:40;10.10;87.00
21108;DHT22;10712;52.944;9.098;2023-03-14T05:39:29;10.00;87.10
21108;DHT22;10712;52.944;9.098;2023-03-14T05:42:14;10.00;87.40
21108;DHT22;10712;52.944;9.098;2023-03-14T05:44:54;10.00;87.50
21108;DHT22;10712;52.944;9.098;2023-03-14T05:47:48;10.00;87.70
21108;DHT22;10712;52.944;9.098;2023-03-14T05:50:55;9.90;87.90
21108;DHT22;10712;52.944;9.098;2023-03-14T05:53:29;9.90;88.20
21108;DHT22;10712;52.944;9.098;2023-03-14T05:56:14;9.80;88.50
21108;DHT22;10712;52.944;9.098;2023-03-14T05:58:55;9.90;88.80
21108;DHT22;10712;52.944;9.098;2023-03-14T06:01:27;9.80;88.90
21108;DHT22;10712;52.944;9.098;2023-03-14T06:04:05;9.80;88.90
21108;DHT22;10712;52.944;9.098;2023-03-14T06:06:32;9.80;89.10
21108;DHT22;10712;52.944;9.098;2023-03-14T06:08:59;9.70;89.20
21108;DHT22;10712;52.944;9.098;2023-03-14T06:11:25;9.70;89.40
21108;DHT22;10712;52.944;9.098;2023-03-14T06:13:51;9.70;89.60
21108;DHT22;10712;52.944;9.098;2023-03-14T06:16:17;9.70;89.80
21108;DHT22;10712;52.944;9.098;2023-03-14T06:18:43;9.60;90.00
21108;DHT22;10712;52.944;9.098;2023-03-14T06:21:11;9.60;90.20
21108;DHT22;10712;52.944;9.098;2023-03-14T06:23:38;9.60;90.40
21108;DHT22;10712;52.944;9.098;2023-03-14T06:26:05;9.60;90.60
21108;DHT22;10712;52.944;9.098;2023-03-14T06:28:31;9.60;90.70
21108;DHT22;10712;52.944;9.098;2023-03-14T06:31:00;9.60;90.70
21108;DHT22;10712;52.944;9.098;2023-03-14T06:33:30;9.60;90.80
21108;DHT22;10712;52.944;9.098;2023-03-14T06:35:57;9.60;90.70
21108;DHT22;10712;52.944;9.098;2023-03-14T06:38:22;9.60;90.70
21108;DHT22;10712;52.944;9.098;2023-03-14T06:40:53;9.60;90.60
21108;DHT22;10712;52.944;9.098;2023-03-14T06:43:29;9.60;90.60
21108;DHT22;10712;52.944;9.098;2023-03-14T06:45:55;9.60;90.40
21108;DHT22;10712;52.944;9.098;2023-03-14T06:48:21;9.60;90.40
21108;DHT22;10712;52.944;9.098;2023-03-14T06:50:51;9.60;90.40
21108;DHT22;10712;52.944;9.098;2023-03-14T06:53:17;9.70;90.40
21108;DHT22;10712;52.944;9.098;2023-03-14T06:55:43;9.70;90.20
21108;DHT22;10712;52.944;9.098;2023-03-14T06:58:11;9.70;90.10
21108;DHT22;10712;52.944;9.098;2023-03-14T07:00:43;9.70;90.10
21108;DHT22;10712;52.944;9.098;2023-03-14T07:03:14;9.80;90.00
21108;DHT22;10712;52.944;9.098;2023-03-14T07:05:43;9.70;90.00
21108;DHT22;10712;52.944;9.098;2023-03-14T07:08:09;9.80;89.90
21108;DHT22;10712;52.944;9.098;2023-03-14T07:10:35;9.80;89.80
21108;DHT22;10712;52.944;9.098;2023-03-14T07:13:01;9.80;89.50
21108;DHT22;10712;52.944;9.098;2023-03-14T07:15:30;9.90;89.20
21108;DHT22;10712;52.944;9.098;2023-03-14T07:18:01;9.90;89.10
21108;DHT22;10712;52.944;9.098;2023-03-14T07:20:27;9.90;89.10
21108;DHT22;10712;52.944;9.098;2023-03-14T07:22:55;9.90;89.10
21108;DHT22;10712;52.944;9.098;2023-03-14T07:25:33;10.00;89.00
21108;DHT22;10712;52.944;9.098;2023-03-14T07:27:58;10.00;88.80
21108;DHT22;10712;52.944;9.098;2023-03-14T07:30:25;10.10;88.70
21108;DHT22;10712;52.944;9.098;2023-03-14T07:32:52;10.10;88.30
21108;DHT22;10712;52.944;9.098;2023-03-14T07:35:20;10.10;88.00
21108;DHT22;10712;52.944;9.098;2023-03-14T07:37:46;10.10;87.90
21108;DHT22;10712;52.944;9.098;2023-03-14T07:40:13;10.20;87.90
21108;DHT22;10712;52.944;9.098;2023-03-14T07:42:43;10.20;88.00
21108;DHT22;10712;52.944;9.098;2023-03-14T07:45:25;10.20;87.90
21108;DHT22;10712;52.944;9.098;2023-03-14T07:47:51;10.20;87.80
21108;DHT22;10712;52.944;9.098;2023-03-14T07:50:17;10.20;87.50
21108;DHT22;10712;52.944;9.098;2023-03-14T07:52:44;10.30;87.00
21108;DHT22;10712;52.944;9.098;2023-03-14T07:55:10;10.30;86.80
21108;DHT22;10712;52.944;9.098;2023-03-14T07:57:38;10.30;87.00
21108;DHT22;10712;52.944;9.098;2023-03-14T08:00:05;10.40;86.70
21108;DHT22;10712;52.944;9.098;2023-03-14T08:02:38;10.50;86.30
21108;DHT22;10712;52.944;9.098;2023-03-14T08:05:04;10.50;86.30
21108;DHT22;10712;52.944;9.098;2023-03-14T08:07:30;10.60;86.10
21108;DHT22;10712;52.944;9.098;2023-03-14T08:09:56;10.60;85.80
21108;DHT22;10712;52.944;9.098;2023-03-14T08:12:22;10.70;85.60
21108;DHT22;10712;52.944;9.098;2023-03-14T08:14:48;10.70;85.60
21108;DHT22;10712;52.944;9.098;2023-03-14T08:17:13;10.80;85.60
21108;DHT22;10712;52.944;9.098;2023-03-14T08:19:41;10.80;84.80
21108;DHT22;10712;52.944;9.098;2023-03-14T08:22:07;10.80;84.50
21108;DHT22;10712;52.944;9.098;2023-03-14T08:24:33;10.90;84.60
21108;DHT22;10712;52.944;9.098;2023-03-14T08:26:59;10.90;84.30
21108;DHT22;10712;52.944;9.098;2023-03-14T08:29:25;10.90;84.40
21108;DHT22;10712;52.944;9.098;2023-03-14T08:31:51;11.00;84.00
21108;DHT22;10712;52.944;9.098;2023-03-14T08:34:16;11.00;83.30
21108;DHT22;10712;52.944;9.098;2023-03-14T08:36:43;11.10;82.70
21108;DHT22;10712;52.944;9.098;2023-03-14T08:39:08;11.10;82.90
21108;DHT22;10712;52.944;9.098;2023-03-14T08:41:35;11.10;82.40
21108;DHT22;10712;52.944;9.098;2023-03-14T08:44:07;11.10;82.50
21108;DHT22;10712;52.944;9.098;2023-03-14T08:46:33;11.20;82.40
21108;DHT22;10712;52.944;9.098;2023-03-14T08:48:59;11.20;81.70
21108;DHT22;10712;52.944;9.098;2023-03-14T08:51:25;11.20;81.90
21108;DHT22;10712;52.944;9.098;2023-03-14T08:53:51;11.30;81.50
21108;DHT22;10712;52.944;9.098;2023-03-14T08:56:17;11.30;81.10
21108;DHT22;10712;52.944;9.098;2023-03-14T08:58:43;11.30;81.50
21108;DHT22;10712;52.944;9.098;2023-03-14T09:01:10;11.30;81.60
21108;DHT22;10712;52.944;9.098;2023-03-14T09:03:36;11.30;81.70
21108;DHT22;10712;52.944;9.098;2023-03-14T09:06:04;11.30;81.80
21108;DHT22;10712;52.944;9.098;2023-03-14T09:08:32;11.20;82.70
21108;DHT22;10712;52.944;9.098;2023-03-14T09:10:59;11.20;83.90
21108;DHT22;10712;52.944;9.098;2023-03-14T09:13:25;11.10;84.90
21108;DHT22;10712;52.944;9.098;2023-03-14T09:15:52;11.00;85.90
21108;DHT22;10712;52.944;9.098;2023-03-14T09:18:19;10.90;86.60
21108;DHT22;10712;52.944;9.098;2023-03-14T09:20:44;10.80;87.20
21108;DHT22;10712;52.944;9.098;2023-03-14T09:23:10;10.80;87.90
21108;DHT22;10712;52.944;9.098;2023-03-14T09:25:36;10.70;88.10
21108;DHT22;10712;52.944;9.098;2023-03-14T09:28:02;10.70;88.30
21108;DHT22;10712;52.944;9.098;2023-03-14T09:30:28;10.60;88.70
21108;DHT22;10712;52.944;9.098;2023-03-14T09:32:54;10.60;88.90
21108;DHT22;10712;52.944;9.098;2023-03-14T09:35:19;10.50;89.10
21108;DHT22;10712;52.944;9.098;2023-03-14T09:37:45;10.50;89.00
21108;DHT22;10712;52.944;9.098;2023-03-14T09:40:16;10.40;89.20
21108;DHT22;10712;52.944;9.098;2023-03-14T09:42:43;10.40;89.40
21108;DHT22;10712;52.944;9.098;2023-03-14T09:45:19;10.40;89.20
21108;DHT22;10712;52.944;9.098;2023-03-14T09:47:51;10.30;89.30
21108;DHT22;10712;52.944;9.098;2023-03-14T09:50:19;10.20;86.60
21108;DHT22;10712;52.944;9.098;2023-03-14T09:52:51;9.70;82.20
21108;DHT22;10712;52.944;9.098;2023-03-14T09:55:22;9.00;83.60
21108;DHT22;10712;52.944;9.098;2023-03-14T09:57:50;8.50;84.90
21108;DHT22;10712;52.944;9.098;2023-03-14T10:00:25;8.20;86.40
21108;DHT22;10712;52.944;9.098;2023-03-14T10:03:09;8.00;87.60
21108;DHT22;10712;52.944;9.098;2023-03-14T10:05:48;7.70;87.70
21108;DHT22;10712;52.944;9.098;2023-03-14T10:08:14;7.40;88.00
21108;DHT22;10712;52.944;9.098;2023-03-14T10:10:40;7.20;88.70
21108;DHT22;10712;52.944;9.098;2023-03-14T10:15:36;6.90;89.50
21108;DHT22;10712;52.944;9.098;2023-03-14T10:18:05;6.80;90.00
21108;DHT22;10712;52.944;9.098;2023-03-14T10:20:43;6.60;90.10
21108;DHT22;10712;52.944;9.098;2023-03-14T10:25:43;6.40;90.30
21108;DHT22;10712;52.944;9.098;2023-03-14T10:28:37;6.30;90.10
21108;DHT22;10712;52.944;9.098;2023-03-14T10:31:47;6.20;89.80
21108;DHT22;10712;52.944;9.098;2023-03-14T10:34:21;6.00;89.70
21108;DHT22;10712;52.944;9.098;2023-03-14T10:36:57;5.80;89.10
21108;DHT22;10712;52.944;9.098;2023-03-14T10:42:21;5.50;90.00
21108;DHT22;10712;52.944;9.098;2023-03-14T10:44:55;5.30;91.00
21108;DHT22;10712;52.944;9.098;2023-03-14T10:47:24;5.20;90.10
21108;DHT22;10712;52.944;9.098;2023-03-14T10:49:52;5.10;90.80
21108;DHT22;10712;52.944;9.098;2023-03-14T10:52:22;5.00;91.20
21108;DHT22;10712;52.944;9.098;2023-03-14T10:55:02;4.90;90.90
21108;DHT22;10712;52.944;9.098;2023-03-14T10:57:44;4.80;90.90
21108;DHT22;10712;52.944;9.098;2023-03-14T11:00:17;4.70;90.90
21108;DHT22;10712;52.944;9.098;2023-03-14T11:05:57;4.60;90.90
21108;DHT22;10712;52.944;9.098;2023-03-14T11:08:45;4.60;91.20
21108;DHT22;10712;52.944;9.098;2023-03-14T11:11:31;4.50;91.50
21108;DHT22;10712;52.944;9.098;2023-03-14T11:19:35;4.50;91.50
21108;DHT22;10712;52.944;9.098;2023-03-14T11:25:18;4.40;92.10
21108;DHT22;10712;52.944;9.098;2023-03-14T11:28:04;4.40;93.00
21108;DHT22;10712;52.944;9.098;2023-03-14T11:30:46;4.40;92.80
21108;DHT22;10712;52.944;9.098;2023-03-14T11:33:27;4.50;92.90
21108;DHT22;10712;52.944;9.098;2023-03-14T11:36:10;4.50;91.40
21108;DHT22;10712;52.944;9.098;2023-03-14T11:38:50;4.40;91.60
21108;DHT22;10712;52.944;9.098;2023-03-14T11:41:23;4.50;91.50
21108;DHT22;10712;52.944;9.098;2023-03-14T11:43:58;4.50;91.20
21108;DHT22;10712;52.944;9.098;2023-03-14T11:46:40;4.50;90.70
21108;DHT22;10712;52.944;9.098;2023-03-14T11:51:57;4.50;90.90
21108;DHT22;10712;52.944;9.098;2023-03-14T11:54:38;4.60;91.00
21108;DHT22;10712;52.944;9.098;2023-03-14T11:57:15;4.60;91.40
21108;DHT22;10712;52.944;9.098;2023-03-14T12:11:19;4.90;90.90
21108;DHT22;10712;52.944;9.098;2023-03-14T12:13:51;5.00;91.60
21108;DHT22;10712;52.944;9.098;2023-03-14T12:18:50;5.20;91.50
21108;DHT22;10712;52.944;9.098;2023-03-14T12:21:17;5.30;91.20
21108;DHT22;10712;52.944;9.098;2023-03-14T12:23:54;5.30;89.90
21108;DHT22;10712;52.944;9.098;2023-03-14T12:26:25;5.50;90.50
21108;DHT22;10712;52.944;9.098;2023-03-14T12:29:11;5.50;90.30
21108;DHT22;10712;52.944;9.098;2023-03-14T12:31:46;5.50;89.90
21108;DHT22;10712;52.944;9.098;2023-03-14T12:34:39;5.60;88.50
21108;DHT22;10712;52.944;9.098;2023-03-14T12:37:28;5.60;88.50
21108;DHT22;10712;52.944;9.098;2023-03-14T12:41:00;5.60;87.90
21108;DHT22;10712;52.944;9.098;2023-03-14T12:43:27;5.60;86.70
21108;DHT22;10712;52.944;9.098;2023-03-14T12:46:29;5.60;86.90
21108;DHT22;10712;52.944;9.098;2023-03-14T12:51:36;5.70;85.50
21108;DHT22;10712;52.944;9.098;2023-03-14T12:57:45;5.70;85.10
21108;DHT22;10712;52.944;9.098;2023-03-14T13:00:35;5.80;84.10
21108;DHT22;10712;52.944;9.098;2023-03-14T13:03:22;5.80;81.00
21108;DHT22;10712;52.944;9.098;2023-03-14T13:08:55;5.90;79.40
21108;DHT22;10712;52.944;9.098;2023-03-14T13:11:22;6.00;79.50
21108;DHT22;10712;52.944;9.098;2023-03-14T13:13:57;6.10;76.30
21108;DHT22;10712;52.944;9.098;2023-03-14T13:16:24;6.20;75.60
21108;DHT22;10712;52.944;9.098;2023-03-14T13:19:09;6.20;75.00
21108;DHT22;10712;52.944;9.098;2023-03-14T13:21:44;6.20;72.70
21108;DHT22;10712;52.944;9.098;2023-03-14T13:24:24;6.20;73.70
21108;DHT22;10712;52.944;9.098;2023-03-14T13:26:55;6.10;73.60
21108;DHT22;10712;52.944;9.098;2023-03-14T13:29:25;6.10;72.50
21108;DHT22;10712;52.944;9.098;2023-03-14T13:31:53;6.10;71.60
21108;DHT22;10712;52.944;9.098;2023-03-14T13:34:29;6.10;70.00
21108;DHT22;10712;52.944;9.098;2023-03-14T13:36:57;6.10;70.00
21108;DHT22;10712;52.944;9.098;2023-03-14T13:39:25;6.00;67.70
21108;DHT22;10712;52.944;9.098;2023-03-14T13:41:58;6.00;67.40
21108;DHT22;10712;52.944;9.098;2023-03-14T13:44:34;6.00;66.30
21108;DHT22;10712;52.944;9.098;2023-03-14T13:47:04;5.90;67.10
21108;DHT22;10712;52.944;9.098;2023-03-14T13:49:37;5.90;66.90
21108;DHT22;10712;52.944;9.098;2023-03-14T13:52:19;5.90;67.50
21108;DHT22;10712;52.944;9.098;2023-03-14T13:54:54;5.90;66.60
21108;DHT22;10712;52.944;9.098;2023-03-14T13:57:21;5.90;67.20
21108;DHT22;10712;52.944;9.098;2023-03-14T14:00:05;5.80;68.60
21108;DHT22;10712;52.944;9.098;2023-03-14T14:02:39;5.80;68.80
21108;DHT22;10712;52.944;9.098;2023-03-14T14:05:05;5.80;69.50
21108;DHT22;10712;52.944;9.098;2023-03-14T14:07:31;5.80;68.50
21108;DHT22;10712;52.944;9.098;2023-03-14T14:09:58;5.80;68.20
21108;DHT22;10712;52.944;9.098;2023-03-14T14:12:40;5.80;68.20
21108;DHT22;10712;52.944;9.098;2023-03-14T14:15:21;5.70;67.60
21108;DHT22;10712;52.944;9.098;2023-03-14T14:17:56;5.70;68.20
21108;DHT22;10712;52.944;9.098;2023-03-14T14:20:37;5.80;67.00
21108;DHT22;10712;52.944;9.098;2023-03-14T14:23:20;5.80;67.40
21108;DHT22;10712;52.944;9.098;2023-03-14T14:25:52;5.80;66.70
21108;DHT22;10712;52.944;9.098;2023-03-14T14:28:27;5.80;65.90
21108;DHT22;10712;52.944;9.098;2023-03-14T14:36:23;5.90;66.50
21108;DHT22;10712;52.944;9.098;2023-03-14T14:38:59;6.10;67.30
21108;DHT22;10712;52.944;9.098;2023-03-14T14:41:32;6.30;65.80
21108;DHT22;10712;52.944;9.098;2023-03-14T14:44:03;6.50;65.90
21108;DHT22;10712;52.944;9.098;2023-03-14T14:46:32;6.70;64.70
21108;DHT22;10712;52.944;9.098;2023-03-14T14:49:09;6.80;64.40
21108;DHT22;10712;52.944;9.098;2023-03-14T14:51:50;6.80;63.80
21108;DHT22;10712;52.944;9.098;2023-03-14T14:54:18;6.70;62.10
21108;DHT22;10712;52.944;9.098;2023-03-14T14:57:03;6.60;62.80
21108;DHT22;10712;52.944;9.098;2023-03-14T14:59:31;6.50;63.20
21108;DHT22;10712;52.944;9.098;2023-03-14T15:02:01;6.40;64.00
21108;DHT22;10712;52.944;9.098;2023-03-14T15:04:31;6.30;65.30
21108;DHT22;10712;52.944;9.098;2023-03-14T15:06:57;6.30;64.50
21108;DHT22;10712;52.944;9.098;2023-03-14T15:09:23;6.30;64.20
21108;DHT22;10712;52.944;9.098;2023-03-14T15:11:49;6.30;64.20
21108;DHT22;10712;52.944;9.098;2023-03-14T15:14:15;6.30;65.60
21108;DHT22;10712;52.944;9.098;2023-03-14T15:16:41;6.20;66.10
21108;DHT22;10712;52.944;9.098;2023-03-14T15:19:26;6.20;65.10
21108;DHT22;10712;52.944;9.098;2023-03-14T15:21:53;6.20;64.20
21108;DHT22;10712;52.944;9.098;2023-03-14T15:24:19;6.10;63.10
21108;DHT22;10712;52.944;9.098;2023-03-14T15:26:45;6.00;63.50
21108;DHT22;10712;52.944;9.098;2023-03-14T15:29:11;5.90;63.20
21108;DHT22;10712;52.944;9.098;2023-03-14T15:31:38;5.90;63.40
21108;DHT22;10712;52.944;9.098;2023-03-14T15:34:05;5.80;63.40
21108;DHT22;10712;52.944;9.098;2023-03-14T15:36:33;5.80;63.10
21108;DHT22;10712;52.944;9.098;2023-03-14T15:39:01;5.70;60.20
21108;DHT22;10712;52.944;9.098;2023-03-14T15:41:28;5.70;60.30
21108;DHT22;10712;52.944;9.098;2023-03-14T15:43:55;5.70;61.40
21108;DHT22;10712;52.944;9.098;2023-03-14T15:46:21;5.70;62.60
21108;DHT22;10712;52.944;9.098;2023-03-14T15:48:49;5.70;62.50
21108;DHT22;10712;52.944;9.098;2023-03-14T15:51:17;5.70;62.50
21108;DHT22;10712;52.944;9.098;2023-03-14T15:53:43;5.70;63.20
21108;DHT22;10712;52.944;9.098;2023-03-14T15:56:18;5.80;63.10
21108;DHT22;10712;52.944;9.098;2023-03-14T15:58:45;5.90;63.80
21108;DHT22;10712;52.944;9.098;2023-03-14T16:01:15;6.00;64.00
21108;DHT22;10712;52.944;9.098;2023-03-14T16:03:43;6.00;64.50
21108;DHT22;10712;52.944;9.098;2023-03-14T16:06:10;6.10;64.10
21108;DHT22;10712;52.944;9.098;2023-03-14T16:08:36;6.10;64.40
21108;DHT22;10712;52.944;9.098;2023-03-14T16:11:03;6.00;64.30
21108;DHT22;10712;52.944;9.098;2023-03-14T16:13:30;6.00;64.60
21108;DHT22;10712;52.944;9.098;2023-03-14T16:15:57;5.90;64.00
21108;DHT22;10712;52.944;9.098;2023-03-14T16:18:28;5.80;63.90
21108;DHT22;10712;52.944;9.098;2023-03-14T16:21:05;5.80;64.00
21108;DHT22;10712;52.944;9.098;2023-03-14T16:23:34;5.70;65.00
21108;DHT22;10712;52.944;9.098;2023-03-14T16:26:07;5.70;64.60
21108;DHT22;10712;52.944;9.098;2023-03-14T16:28:34;5.70;64.90
21108;DHT22;10712;52.944;9.098;2023-03-14T16:31:02;5.60;63.90
21108;DHT22;10712;52.944;9.098;2023-03-14T16:33:30;5.60;64.10
21108;DHT22;10712;52.944;9.098;2023-03-14T16:35:58;5.60;63.90
21108;DHT22;10712;52.944;9.098;2023-03-14T16:38:25;5.50;63.60
21108;DHT22;10712;52.944;9.098;2023-03-14T16:41:18;5.50;63.50
21108;DHT22;10712;52.944;9.098;2023-03-14T16:43:45;5.40;64.00
21108;DHT22;10712;52.944;9.098;2023-03-14T16:46:18;5.40;63.90
21108;DHT22;10712;52.944;9.098;2023-03-14T16:48:46;5.40;63.80
21108;DHT22;10712;52.944;9.098;2023-03-14T16:51:14;5.30;63.80
21108;DHT22;10712;52.944;9.098;2023-03-14T16:53:41;5.30;64.30
21108;DHT22;10712;52.944;9.098;2023-03-14T16:56:10;5.40;63.10
21108;DHT22;10712;52.944;9.098;2023-03-14T16:58:41;5.40;63.60
21108;DHT22;10712;52.944;9.098;2023-03-14T17:01:13;5.30;64.10
21108;DHT22;10712;52.944;9.098;2023-03-14T17:03:48;5.30;63.40